createdAt,value
2023-08-08T00:00:01.462Z,62.00
2023-08-08T00:01:03.980Z,62.31
2023-08-08T00:02:07.092Z,62.24
2023-08-08T00:03:10.260Z,62.52
2023-08-08T00:04:12.649Z,62.37
2023-08-08T00:05:14.986Z,62.30
2023-08-08T00:06:17.284Z,62.34
2023-08-08T00:07:19.892Z,62.42
2023-08-08T00:08:22.313Z,62.69
2023-08-08T00:09:24.702Z,62.55
2023-08-08T00:10:27.170Z,62.47
2023-08-08T00:11:29.369Z,62.48
2023-08-08T00:12:31.846Z,62.48
2023-08-08T00:13:34.325Z,62.51
2023-08-08T00:14:36.520Z,62.82
2023-08-08T00:15:38.981Z,63.16
2023-08-08T00:16:41.173Z,63.48
2023-08-08T00:17:43.630Z,63.37
2023-08-08T00:18:46.261Z,62.97
2023-08-08T00:19:48.473Z,63.17
2023-08-08T00:20:51.033Z,63.17
2023-08-08T00:21:53.227Z,62.82
2023-08-08T00:22:55.449Z,62.81
2023-08-08T00:23:58.019Z,62.80
2023-08-08T00:25:00.276Z,62.92
2023-08-08T00:26:02.521Z,62.91
2023-08-08T00:27:05.079Z,63.23
2023-08-08T00:28:07.379Z,63.23
2023-08-08T00:29:10.167Z,63.34
2023-08-08T00:30:16.463Z,63.45
2023-08-08T00:31:20.924Z,63.50
2023-08-08T00:32:23.590Z,64.12
2023-08-08T00:33:25.836Z,63.95
2023-08-08T00:34:28.084Z,63.88
2023-08-08T00:35:30.810Z,63.38
2023-08-08T00:36:33.079Z,63.49
2023-08-08T00:37:35.425Z,63.60
2023-08-08T00:38:37.993Z,63.68
2023-08-08T00:39:43.494Z,63.79
2023-08-08T00:40:47.383Z,63.75
2023-08-08T00:41:49.762Z,63.93
2023-08-08T00:42:52.025Z,63.87
2023-08-08T00:43:54.418Z,63.79
2023-08-08T00:45:02.932Z,63.81
2023-08-08T00:46:05.380Z,63.82
2023-08-08T00:47:10.400Z,63.82
2023-08-08T00:48:12.938Z,64.01
2023-08-08T00:49:15.518Z,64.12
2023-08-08T00:50:19.151Z,64.39
2023-08-08T00:51:22.507Z,63.92
2023-08-08T00:52:24.841Z,63.85
2023-08-08T00:53:29.368Z,63.78
2023-08-08T00:54:32.259Z,64.00
2023-08-08T00:55:34.940Z,64.45
2023-08-08T00:56:38.661Z,64.60
2023-08-08T00:57:41.593Z,64.28
2023-08-08T00:58:46.873Z,63.89
2023-08-08T00:59:49.498Z,64.16
2023-08-08T01:00:53.548Z,64.16
2023-08-08T01:01:58.439Z,64.14
2023-08-08T01:03:00.940Z,64.29
2023-08-08T01:04:07.518Z,64.56
2023-08-08T01:05:10.538Z,64.68
2023-08-08T01:06:35.160Z,64.69
2023-08-08T01:07:49.278Z,64.80
2023-08-08T01:09:01.095Z,64.51
2023-08-08T01:10:18.083Z,64.23
2023-08-08T01:11:20.575Z,64.26
2023-08-08T01:12:24.625Z,64.30
2023-08-08T01:13:31.560Z,64.77
2023-08-08T01:14:36.894Z,64.46
2023-08-08T01:15:39.641Z,64.40
2023-08-08T01:16:44.013Z,64.48
2023-08-08T01:17:48.423Z,64.71
2023-08-08T01:18:51.557Z,65.17
2023-08-08T01:19:54.526Z,65.29
2023-08-08T01:20:57.941Z,65.46
2023-08-08T01:22:05.478Z,65.36
2023-08-08T01:23:17.590Z,65.42
2023-08-08T01:24:21.122Z,65.56
2023-08-08T01:25:24.468Z,65.34
2023-08-08T01:26:27.885Z,64.97
2023-08-08T01:27:30.325Z,64.90
2023-08-08T01:28:32.558Z,65.08
2023-08-08T01:29:35.161Z,64.87
2023-08-08T01:30:38.047Z,64.95
2023-08-08T01:31:40.297Z,65.23
2023-08-08T01:32:42.504Z,64.93
2023-08-08T01:33:45.049Z,65.11
2023-08-08T01:34:47.562Z,65.53
2023-08-08T01:36:02.030Z,65.26
2023-08-08T01:37:19.048Z,65.46
2023-08-08T01:38:42.967Z,65.28
2023-08-08T01:39:47.962Z,65.39
2023-08-08T01:40:50.794Z,65.48
2023-08-08T01:41:55.030Z,65.68
2023-08-08T01:42:57.707Z,65.43
2023-08-08T01:44:01.593Z,65.19
2023-08-08T01:45:05.224Z,64.98
2023-08-08T01:46:08.648Z,65.47
2023-08-08T01:47:11.200Z,65.42
2023-08-08T01:48:13.586Z,65.37
2023-08-08T01:49:16.346Z,65.00
2023-08-08T01:50:19.153Z,65.25
2023-08-08T01:51:21.358Z,65.44
2023-08-08T01:52:24.030Z,65.56
2023-08-08T01:53:26.326Z,66.25
2023-08-08T01:54:28.960Z,66.24
2023-08-08T01:55:32.465Z,66.35
2023-08-08T01:56:34.725Z,66.38
2023-08-08T01:57:37.127Z,66.39
2023-08-08T01:58:39.421Z,66.21
2023-08-08T01:59:41.727Z,65.97
2023-08-08T02:00:46.222Z,65.78
2023-08-08T02:01:48.437Z,65.60
2023-08-08T02:02:50.972Z,65.78
2023-08-08T02:03:53.766Z,65.95
2023-08-08T02:04:57.893Z,66.22
2023-08-08T02:06:01.721Z,66.10
2023-08-08T02:07:04.165Z,65.87
2023-08-08T02:08:07.180Z,65.68
2023-08-08T02:09:11.367Z,66.11
2023-08-08T02:10:13.819Z,66.36
2023-08-08T02:11:16.115Z,66.12
2023-08-08T02:12:18.511Z,66.12
2023-08-08T02:13:20.712Z,66.34
2023-08-08T02:14:24.135Z,66.27
2023-08-08T02:15:26.562Z,66.37
2023-08-08T02:16:28.939Z,66.55
2023-08-08T02:17:31.493Z,66.84
2023-08-08T02:18:33.813Z,67.04
2023-08-08T02:19:37.643Z,67.02
2023-08-08T02:20:40.342Z,67.02
2023-08-08T02:21:42.568Z,67.23
2023-08-08T02:22:46.118Z,66.87
2023-08-08T02:23:48.581Z,66.79
2023-08-08T02:24:51.227Z,66.53
2023-08-08T02:25:54.384Z,66.09
2023-08-08T02:26:57.156Z,66.05
2023-08-08T02:27:59.372Z,65.95
2023-08-08T02:29:01.893Z,66.34
2023-08-08T02:30:07.462Z,66.02
2023-08-08T02:31:09.974Z,65.72
2023-08-08T02:32:15.162Z,65.36
2023-08-08T02:33:17.387Z,65.80
2023-08-08T02:34:19.621Z,66.14
2023-08-08T02:35:22.060Z,66.34
2023-08-08T02:36:24.527Z,66.86
2023-08-08T02:37:26.884Z,66.83
2023-08-08T02:38:29.382Z,66.94
2023-08-08T02:39:31.762Z,66.77
2023-08-08T02:40:34.860Z,66.77
2023-08-08T02:41:37.584Z,67.06
2023-08-08T02:42:39.821Z,66.82
2023-08-08T02:43:43.174Z,66.45
2023-08-08T02:44:45.562Z,66.66
2023-08-08T02:45:48.029Z,66.52
2023-08-08T02:46:50.342Z,66.13
2023-08-08T02:47:52.591Z,66.18
2023-08-08T02:48:55.110Z,66.46
2023-08-08T02:49:57.568Z,66.74
2023-08-08T02:51:00.298Z,66.93
2023-08-08T02:52:03.996Z,66.84
2023-08-08T02:53:09.530Z,67.16
2023-08-08T02:54:17.713Z,67.44
2023-08-08T02:55:20.287Z,67.59
2023-08-08T02:56:25.934Z,67.95
2023-08-08T02:57:29.435Z,67.98
2023-08-08T02:58:32.168Z,67.85
2023-08-08T02:59:35.646Z,68.04
2023-08-08T03:00:41.196Z,67.71
2023-08-08T03:01:48.742Z,67.76
2023-08-08T03:02:53.828Z,67.60
2023-08-08T03:03:56.499Z,67.51
2023-08-08T03:05:00.894Z,67.62
2023-08-08T03:06:04.902Z,67.69
2023-08-08T03:07:07.661Z,67.73
2023-08-08T03:08:12.074Z,67.71
2023-08-08T03:09:14.531Z,67.53
2023-08-08T03:10:17.878Z,67.38
2023-08-08T03:11:20.768Z,67.48
2023-08-08T03:12:24.269Z,67.41
2023-08-08T03:13:28.530Z,67.07
2023-08-08T03:14:32.025Z,66.96
2023-08-08T03:15:37.034Z,67.40
2023-08-08T03:16:41.000Z,67.56
2023-08-08T03:17:44.655Z,67.91
2023-08-08T03:18:47.088Z,67.71
2023-08-08T03:19:50.459Z,67.87
2023-08-08T03:20:53.399Z,67.85
2023-08-08T03:21:56.774Z,68.53
2023-08-08T03:22:59.039Z,68.70
2023-08-08T03:24:01.305Z,68.55
2023-08-08T03:25:05.405Z,68.65
2023-08-08T03:26:07.872Z,68.56
2023-08-08T03:27:11.359Z,68.80
2023-08-08T03:28:14.108Z,68.91
2023-08-08T03:29:16.330Z,68.96
2023-08-08T03:30:23.117Z,69.09
2023-08-08T03:31:27.417Z,68.60
2023-08-08T03:32:30.760Z,68.61
2023-08-08T03:33:33.005Z,69.31
2023-08-08T03:34:37.835Z,69.58
2023-08-08T03:35:40.808Z,69.62
2023-08-08T03:36:43.650Z,69.90
2023-08-08T03:37:46.723Z,69.44
2023-08-08T03:38:49.058Z,69.10
2023-08-08T03:39:51.485Z,69.22
2023-08-08T03:40:53.932Z,69.66
2023-08-08T03:41:56.446Z,70.03
2023-08-08T03:42:58.676Z,69.64
2023-08-08T03:44:00.968Z,69.63
2023-08-08T03:45:03.752Z,70.12
2023-08-08T03:46:06.611Z,70.24
2023-08-08T03:47:18.489Z,70.05
2023-08-08T03:48:22.365Z,70.13
2023-08-08T03:49:24.947Z,69.92
2023-08-08T03:50:27.366Z,69.87
2023-08-08T03:51:29.795Z,69.91
2023-08-08T03:52:35.420Z,70.30
2023-08-08T03:53:38.089Z,70.20
2023-08-08T03:54:41.717Z,70.21
2023-08-08T03:55:44.264Z,70.24
2023-08-08T03:56:47.129Z,70.05
2023-08-08T03:57:49.571Z,70.07
2023-08-08T03:58:51.848Z,70.26
2023-08-08T03:59:54.123Z,69.91
2023-08-08T04:00:57.973Z,69.53
2023-08-08T04:02:00.940Z,69.38
2023-08-08T04:03:03.458Z,69.55
2023-08-08T04:04:06.749Z,70.00
2023-08-08T04:05:09.763Z,70.12
2023-08-08T04:06:12.056Z,70.05
2023-08-08T04:07:14.765Z,69.86
2023-08-08T04:08:19.174Z,70.23
2023-08-08T04:09:23.445Z,70.46
2023-08-08T04:10:25.729Z,70.50
2023-08-08T04:11:27.986Z,70.42
2023-08-08T04:12:30.744Z,70.51
2023-08-08T04:13:32.999Z,70.53
2023-08-08T04:14:35.292Z,70.66
2023-08-08T04:15:37.722Z,70.76
2023-08-08T04:16:40.743Z,70.04
2023-08-08T04:17:43.118Z,69.97
2023-08-08T04:18:45.308Z,70.15
2023-08-08T04:19:47.592Z,70.41
2023-08-08T04:20:50.034Z,70.71
2023-08-08T04:21:52.472Z,70.37
2023-08-08T04:22:54.695Z,69.92
2023-08-08T04:23:56.936Z,70.24
2023-08-08T04:24:59.141Z,70.18
2023-08-08T04:26:01.618Z,70.59
2023-08-08T04:27:04.981Z,70.62
2023-08-08T04:28:07.291Z,69.99
2023-08-08T04:29:09.729Z,69.59
2023-08-08T04:30:12.086Z,69.92
2023-08-08T04:31:15.205Z,69.95
2023-08-08T04:32:17.843Z,70.12
2023-08-08T04:33:20.059Z,70.06
2023-08-08T04:34:22.336Z,69.94
2023-08-08T04:35:24.565Z,69.54
2023-08-08T04:36:30.337Z,69.54
2023-08-08T04:37:32.772Z,69.48
2023-08-08T04:38:35.076Z,69.58
2023-08-08T04:39:37.267Z,69.68
2023-08-08T04:40:39.759Z,70.11
2023-08-08T04:41:42.010Z,69.95
2023-08-08T04:42:44.457Z,70.05
2023-08-08T04:43:46.725Z,69.62
2023-08-08T04:44:48.929Z,69.40
2023-08-08T04:45:52.228Z,69.59
2023-08-08T04:46:54.856Z,69.36
2023-08-08T04:47:57.089Z,69.25
2023-08-08T04:48:59.359Z,69.43
2023-08-08T04:50:01.830Z,69.45
2023-08-08T04:51:06.374Z,69.49
2023-08-08T04:52:09.076Z,69.62
2023-08-08T04:53:11.328Z,69.56
2023-08-08T04:54:13.555Z,69.48
2023-08-08T04:55:16.068Z,69.48
2023-08-08T04:56:18.278Z,69.71
2023-08-08T04:57:20.702Z,70.05
2023-08-08T04:58:23.078Z,70.31
2023-08-08T04:59:25.266Z,70.70
2023-08-08T05:00:27.760Z,70.75
2023-08-08T05:01:30.074Z,70.47
2023-08-08T05:02:32.437Z,70.15
2023-08-08T05:03:34.823Z,69.85
2023-08-08T05:04:40.441Z,69.79
2023-08-08T05:05:42.718Z,69.80
2023-08-08T05:06:45.434Z,70.11
2023-08-08T05:07:47.865Z,70.21
2023-08-08T05:08:52.522Z,70.02
2023-08-08T05:09:55.027Z,69.66
2023-08-08T05:10:57.461Z,69.46
2023-08-08T05:12:00.069Z,69.62
2023-08-08T05:13:02.906Z,69.47
2023-08-08T05:14:05.424Z,69.46
2023-08-08T05:15:11.108Z,69.46
2023-08-08T05:16:13.359Z,69.45
2023-08-08T05:17:15.606Z,69.22
2023-08-08T05:18:18.238Z,69.11
2023-08-08T05:19:20.510Z,69.35
2023-08-08T05:20:23.373Z,68.97
2023-08-08T05:21:25.660Z,68.55
2023-08-08T05:22:27.904Z,68.85
2023-08-08T05:23:30.523Z,68.83
2023-08-08T05:24:32.823Z,68.77
2023-08-08T05:25:35.039Z,68.52
2023-08-08T05:26:37.571Z,67.95
2023-08-08T05:27:39.977Z,67.56
2023-08-08T05:28:42.744Z,67.29
2023-08-08T05:29:45.071Z,67.03
2023-08-08T05:30:47.551Z,66.78
2023-08-08T05:31:50.119Z,66.71
2023-08-08T05:32:52.617Z,66.01
2023-08-08T05:33:55.141Z,65.17
2023-08-08T05:34:58.898Z,64.73
2023-08-08T05:36:01.259Z,64.42
2023-08-08T05:37:15.988Z,64.78
2023-08-08T05:38:19.911Z,64.96
2023-08-08T05:39:22.320Z,65.19
2023-08-08T05:40:25.087Z,65.15
2023-08-08T05:41:27.472Z,65.25
2023-08-08T05:42:30.698Z,65.00
2023-08-08T05:43:32.915Z,64.66
2023-08-08T05:44:35.193Z,64.83
2023-08-08T05:45:37.769Z,64.47
2023-08-08T05:46:40.040Z,64.19
2023-08-08T05:47:42.546Z,63.88
2023-08-08T05:48:46.322Z,63.69
2023-08-08T05:49:49.885Z,63.74
2023-08-08T05:50:52.516Z,63.21
2023-08-08T05:51:54.757Z,63.26
2023-08-08T05:52:57.014Z,62.69
2023-08-08T05:54:00.375Z,63.10
2023-08-08T05:55:06.514Z,63.11
2023-08-08T05:56:09.968Z,62.82
2023-08-08T05:57:12.556Z,62.64
2023-08-08T05:58:15.023Z,61.93
2023-08-08T05:59:17.259Z,61.07
2023-08-08T06:00:20.060Z,61.08
2023-08-08T06:01:22.323Z,60.52
2023-08-08T06:02:24.680Z,60.62
2023-08-08T06:03:27.241Z,60.59
2023-08-08T06:04:29.581Z,60.54
2023-08-08T06:05:32.072Z,61.16
2023-08-08T06:06:34.372Z,60.99
2023-08-08T06:07:36.591Z,60.97
2023-08-08T06:08:38.827Z,59.89
2023-08-08T06:09:41.330Z,59.27
2023-08-08T06:10:43.944Z,57.79
2023-08-08T06:11:46.224Z,55.97
2023-08-08T06:12:48.605Z,54.82
2023-08-08T06:13:50.857Z,55.50
2023-08-08T06:14:53.130Z,55.86
2023-08-08T06:15:55.835Z,55.89
2023-08-08T06:16:58.086Z,55.43
2023-08-08T06:18:01.038Z,54.69
2023-08-08T06:19:04.190Z,53.80
2023-08-08T06:20:08.154Z,53.96
2023-08-08T06:21:10.958Z,53.94
2023-08-08T06:22:13.524Z,53.11
2023-08-08T06:23:16.364Z,51.68
2023-08-08T06:24:18.895Z,51.00
2023-08-08T06:25:21.368Z,49.85
2023-08-08T06:26:24.315Z,48.91
2023-08-08T06:27:26.591Z,48.01
2023-08-08T06:28:28.808Z,47.33
2023-08-08T06:29:31.966Z,46.69
2023-08-08T06:30:34.714Z,46.60
2023-08-08T06:31:37.198Z,46.46
2023-08-08T06:32:39.477Z,46.72
2023-08-08T06:33:42.014Z,47.02
2023-08-08T06:34:44.505Z,48.04
2023-08-08T06:35:47.055Z,48.43
2023-08-08T06:36:49.498Z,49.58
2023-08-08T06:37:51.735Z,49.78
2023-08-08T06:38:54.218Z,51.34
2023-08-08T06:39:56.772Z,52.74
2023-08-08T06:40:59.225Z,53.69
2023-08-08T06:42:01.787Z,53.51
2023-08-08T06:43:15.064Z,52.39
2023-08-08T06:44:17.369Z,51.69
2023-08-08T06:45:20.203Z,51.32
2023-08-08T06:46:22.775Z,51.01
2023-08-08T06:47:25.047Z,51.18
2023-08-08T06:48:27.315Z,50.11
2023-08-08T06:49:29.732Z,50.06
2023-08-08T06:50:32.016Z,50.51
2023-08-08T06:51:34.627Z,50.83
2023-08-08T06:52:36.907Z,50.96
2023-08-08T06:53:39.622Z,51.00
2023-08-08T06:54:41.851Z,51.75
2023-08-08T06:55:44.250Z,51.92
2023-08-08T06:56:46.867Z,52.65
2023-08-08T06:57:49.054Z,52.39
2023-08-08T06:58:51.241Z,53.09
2023-08-08T06:59:54.189Z,53.25
2023-08-08T07:00:56.573Z,53.56
2023-08-08T07:01:59.364Z,53.58
2023-08-08T07:03:02.601Z,53.35
2023-08-08T07:04:05.018Z,53.69
2023-08-08T07:05:08.034Z,54.49
2023-08-08T07:06:11.068Z,54.69
2023-08-08T07:07:13.503Z,55.26
2023-08-08T07:08:15.857Z,55.65
2023-08-08T07:09:18.202Z,55.40
2023-08-08T07:10:20.861Z,55.60
2023-08-08T07:11:23.348Z,55.46
2023-08-08T07:12:25.807Z,55.09
2023-08-08T07:13:28.593Z,55.04
2023-08-08T07:14:31.172Z,55.08
2023-08-08T07:15:33.487Z,55.74
2023-08-08T07:16:35.967Z,55.63
2023-08-08T07:17:38.529Z,55.36
2023-08-08T07:18:40.839Z,55.08
2023-08-08T07:19:43.079Z,55.22
2023-08-08T07:20:45.486Z,55.69
2023-08-08T07:21:48.160Z,55.57
2023-08-08T07:22:50.409Z,55.32
2023-08-08T07:23:53.178Z,55.47
2023-08-08T07:24:55.491Z,55.12
2023-08-08T07:25:57.917Z,54.86
2023-08-08T07:27:00.961Z,54.87
2023-08-08T07:28:03.673Z,55.38
2023-08-08T07:29:07.153Z,55.08
2023-08-08T07:30:09.905Z,55.19
2023-08-08T07:31:12.431Z,54.63
2023-08-08T07:32:14.927Z,54.34
2023-08-08T07:33:17.644Z,54.50
2023-08-08T07:34:20.555Z,53.74
2023-08-08T07:35:22.814Z,53.37
2023-08-08T07:36:25.115Z,53.05
2023-08-08T07:37:27.748Z,51.99
2023-08-08T07:38:29.982Z,51.34
2023-08-08T07:39:32.523Z,51.95
2023-08-08T07:40:34.914Z,51.92
2023-08-08T07:41:37.276Z,52.79
2023-08-08T07:42:39.917Z,53.37
2023-08-08T07:43:42.229Z,53.97
2023-08-08T07:44:44.726Z,54.65
2023-08-08T07:45:46.946Z,54.45
2023-08-08T07:46:49.236Z,54.64
2023-08-08T07:47:51.881Z,54.42
2023-08-08T07:48:54.109Z,54.09
2023-08-08T07:49:56.351Z,54.04
2023-08-08T07:50:58.815Z,53.43
2023-08-08T07:52:01.365Z,52.58
2023-08-08T07:53:04.353Z,51.26
2023-08-08T07:54:09.544Z,50.34
2023-08-08T07:55:11.841Z,49.79
2023-08-08T07:56:15.023Z,49.41
2023-08-08T07:57:17.259Z,49.61
2023-08-08T07:58:20.720Z,50.47
2023-08-08T07:59:24.974Z,51.68
2023-08-08T08:00:27.482Z,52.01
2023-08-08T08:01:30.518Z,51.99
2023-08-08T08:02:33.008Z,51.82
2023-08-08T08:03:42.959Z,52.30
2023-08-08T08:04:45.273Z,52.73
2023-08-08T08:05:47.830Z,51.78
2023-08-08T08:06:50.084Z,51.47
2023-08-08T08:07:52.715Z,52.83
2023-08-08T08:08:54.929Z,53.32
2023-08-08T08:09:57.191Z,53.29
2023-08-08T08:11:00.075Z,53.70
2023-08-08T08:12:02.457Z,54.04
2023-08-08T08:13:05.484Z,53.84
2023-08-08T08:14:07.868Z,53.29
2023-08-08T08:15:10.628Z,53.16
2023-08-08T08:16:13.068Z,53.39
2023-08-08T08:17:15.481Z,52.49
2023-08-08T08:18:19.724Z,51.58
2023-08-08T08:19:22.164Z,51.39
2023-08-08T08:20:24.661Z,50.18
2023-08-08T08:21:27.112Z,50.47
2023-08-08T08:22:29.339Z,50.24
2023-08-08T08:23:33.550Z,50.40
2023-08-08T08:24:35.963Z,49.81
2023-08-08T08:25:38.153Z,49.20
2023-08-08T08:26:40.585Z,48.43
2023-08-08T08:27:43.016Z,47.62
2023-08-08T08:28:45.433Z,47.20
2023-08-08T08:29:47.638Z,46.61
2023-08-08T08:30:50.766Z,46.51
2023-08-08T08:31:53.021Z,46.77
2023-08-08T08:32:55.264Z,46.64
2023-08-08T08:33:57.887Z,47.11
2023-08-08T08:35:00.351Z,47.02
2023-08-08T08:36:02.836Z,46.57
2023-08-08T08:37:05.092Z,46.86
2023-08-08T08:38:08.214Z,46.83
2023-08-08T08:39:10.559Z,45.14
2023-08-08T08:40:13.573Z,45.81
2023-08-08T08:41:19.693Z,45.92
2023-08-08T08:42:22.873Z,46.60
2023-08-08T08:43:26.193Z,47.78
2023-08-08T08:44:31.239Z,49.02
2023-08-08T08:45:38.196Z,49.48
2023-08-08T08:46:41.393Z,49.54
2023-08-08T08:47:47.262Z,48.82
2023-08-08T08:48:55.986Z,49.10
2023-08-08T08:49:58.767Z,49.83
2023-08-08T08:51:01.335Z,50.24
2023-08-08T08:52:05.978Z,50.64
2023-08-08T08:53:08.705Z,50.66
2023-08-08T08:54:12.279Z,50.49
2023-08-08T08:55:14.542Z,49.54
2023-08-08T08:56:18.011Z,48.83
2023-08-08T08:57:22.602Z,48.61
2023-08-08T08:58:26.087Z,48.91
2023-08-08T08:59:28.601Z,48.14
2023-08-08T09:00:31.767Z,47.78
2023-08-08T09:01:34.442Z,48.11
2023-08-08T09:02:37.834Z,47.93
2023-08-08T09:03:41.680Z,47.74
2023-08-08T09:04:44.277Z,46.98
2023-08-08T09:05:49.262Z,45.90
2023-08-08T09:06:52.307Z,45.41
2023-08-08T09:07:54.845Z,46.02
2023-08-08T09:09:03.338Z,46.14
2023-08-08T09:10:09.428Z,47.01
2023-08-08T09:11:12.065Z,47.39
2023-08-08T09:12:14.615Z,48.12
2023-08-08T09:13:18.258Z,49.44
2023-08-08T09:14:24.735Z,49.90
2023-08-08T09:15:31.616Z,49.72
2023-08-08T09:16:34.104Z,49.64
2023-08-08T09:17:46.585Z,49.63
2023-08-08T09:18:52.850Z,48.22
2023-08-08T09:19:56.319Z,48.13
2023-08-08T09:20:59.429Z,48.89
2023-08-08T09:22:02.958Z,49.07
2023-08-08T09:23:05.538Z,49.89
2023-08-08T09:24:08.421Z,50.20
2023-08-08T09:25:10.825Z,50.28
2023-08-08T09:26:15.144Z,49.55
2023-08-08T09:27:18.185Z,50.05
2023-08-08T09:28:20.665Z,49.93
2023-08-08T09:29:23.170Z,49.51
2023-08-08T09:30:26.991Z,49.47
2023-08-08T09:31:29.604Z,47.95
2023-08-08T09:32:32.942Z,47.20
2023-08-08T09:33:35.498Z,48.39
2023-08-08T09:34:38.021Z,49.43
2023-08-08T09:35:40.563Z,49.64
2023-08-08T09:36:43.033Z,50.05
2023-08-08T09:37:45.341Z,49.97
2023-08-08T09:38:47.834Z,49.67
2023-08-08T09:40:00.838Z,48.90
2023-08-08T09:41:03.295Z,48.51
2023-08-08T09:42:06.051Z,48.14
2023-08-08T09:43:09.538Z,47.68
2023-08-08T09:44:12.046Z,46.78
2023-08-08T09:45:14.451Z,46.19
2023-08-08T09:46:17.161Z,46.32
2023-08-08T09:47:20.896Z,46.59
2023-08-08T09:48:30.205Z,45.77
2023-08-08T09:49:35.524Z,46.12
2023-08-08T09:50:39.016Z,45.91
2023-08-08T09:51:41.430Z,46.27
2023-08-08T09:52:44.767Z,46.16
2023-08-08T09:53:48.296Z,46.66
2023-08-08T09:54:51.543Z,46.74
2023-08-08T09:55:56.149Z,46.69
2023-08-08T09:56:59.653Z,46.72
2023-08-08T09:58:03.838Z,46.93
2023-08-08T09:59:07.487Z,47.17
2023-08-08T10:00:17.652Z,47.38
2023-08-08T10:01:21.564Z,47.49
2023-08-08T10:02:24.094Z,48.71
2023-08-08T10:03:27.695Z,49.24
2023-08-08T10:04:29.996Z,49.40
2023-08-08T10:05:32.946Z,49.23
2023-08-08T10:06:35.282Z,48.45
2023-08-08T10:07:37.597Z,48.07
2023-08-08T10:08:40.120Z,47.79
2023-08-08T10:09:42.871Z,47.44
2023-08-08T10:10:50.759Z,46.62
2023-08-08T10:11:54.524Z,46.38
2023-08-08T10:12:56.772Z,46.13
2023-08-08T10:14:01.392Z,45.91
2023-08-08T10:15:04.756Z,45.54
2023-08-08T10:16:10.439Z,45.58
2023-08-08T10:17:16.758Z,45.45
2023-08-08T10:18:20.194Z,45.93
2023-08-08T10:19:24.317Z,45.73
2023-08-08T10:20:36.682Z,45.48
2023-08-08T10:21:43.043Z,46.22
2023-08-08T10:22:48.092Z,46.15
2023-08-08T10:23:50.849Z,46.18
2023-08-08T10:24:55.024Z,46.04
2023-08-08T10:25:57.619Z,46.10
2023-08-08T10:27:03.150Z,46.20
2023-08-08T10:28:26.222Z,46.52
2023-08-08T10:29:32.500Z,46.42
2023-08-08T10:30:45.686Z,46.04
2023-08-08T10:32:02.779Z,45.24
2023-08-08T10:33:05.599Z,44.80
2023-08-08T10:34:08.565Z,44.95
2023-08-08T10:35:13.087Z,44.42
2023-08-08T10:36:15.339Z,44.24
2023-08-08T10:37:21.285Z,44.61
2023-08-08T10:38:28.014Z,44.40
2023-08-08T10:39:31.747Z,45.67
2023-08-08T10:40:34.465Z,45.96
2023-08-08T10:41:46.891Z,46.60
2023-08-08T10:42:49.168Z,46.58
2023-08-08T10:43:52.802Z,46.27
2023-08-08T10:44:57.282Z,46.24
2023-08-08T10:46:12.882Z,45.77
2023-08-08T10:47:16.026Z,45.89
2023-08-08T10:48:21.318Z,45.32
2023-08-08T10:49:24.122Z,45.45
2023-08-08T10:50:26.693Z,45.46
2023-08-08T10:51:44.087Z,45.57
2023-08-08T10:52:53.671Z,45.52
2023-08-08T10:53:56.922Z,46.50
2023-08-08T10:54:59.031Z,46.67
2023-08-08T10:56:05.229Z,47.05
2023-08-08T10:57:17.187Z,46.96
2023-08-08T10:58:21.140Z,46.72
2023-08-08T10:59:25.062Z,46.37
2023-08-08T11:00:32.684Z,46.17
2023-08-08T11:01:35.893Z,46.55
2023-08-08T11:02:39.911Z,46.49
2023-08-08T11:03:42.690Z,46.78
2023-08-08T11:04:45.758Z,47.16
2023-08-08T11:05:52.311Z,47.03
2023-08-08T11:06:55.546Z,47.62
2023-08-08T11:07:59.151Z,48.22
2023-08-08T11:09:02.424Z,48.00
2023-08-08T11:10:05.263Z,47.97
2023-08-08T11:11:08.089Z,47.74
2023-08-08T11:12:17.014Z,47.71
2023-08-08T11:13:19.438Z,47.79
2023-08-08T11:14:23.196Z,47.42
2023-08-08T11:15:25.936Z,47.38
2023-08-08T11:16:28.475Z,47.44
2023-08-08T11:17:31.215Z,47.42
2023-08-08T11:18:33.696Z,46.77
2023-08-08T11:19:42.465Z,47.02
2023-08-08T11:20:45.277Z,46.68
2023-08-08T11:21:49.353Z,46.77
2023-08-08T11:22:56.068Z,46.48
2023-08-08T11:23:58.935Z,45.62
2023-08-08T11:25:04.594Z,46.01
2023-08-08T11:27:12.791Z,45.88
2023-08-08T11:28:16.124Z,45.92
2023-08-08T11:29:18.423Z,46.32
2023-08-08T11:30:22.208Z,46.53
2023-08-08T11:31:26.348Z,46.69
2023-08-08T11:32:29.419Z,46.51
2023-08-08T11:33:32.661Z,46.70
2023-08-08T11:34:34.937Z,46.08
2023-08-08T11:35:37.183Z,46.16
2023-08-08T11:36:40.189Z,46.19
2023-08-08T11:37:42.665Z,46.14
2023-08-08T11:38:45.591Z,46.42
2023-08-08T11:39:48.449Z,45.67
2023-08-08T11:40:51.114Z,45.45
2023-08-08T11:41:53.948Z,45.60
2023-08-08T11:43:00.430Z,45.30
2023-08-08T11:44:06.395Z,45.45
2023-08-08T11:45:12.423Z,45.15
2023-08-08T11:46:16.350Z,45.75
2023-08-08T11:47:19.115Z,45.85
2023-08-08T11:48:22.406Z,45.42
2023-08-08T11:49:24.624Z,45.61
2023-08-08T11:50:28.527Z,45.62
2023-08-08T11:51:30.978Z,45.66
2023-08-08T11:52:33.965Z,45.50
2023-08-08T11:53:39.407Z,45.21
2023-08-08T11:54:42.352Z,44.93
2023-08-08T11:55:45.728Z,44.86
2023-08-08T11:56:48.389Z,44.49
2023-08-08T11:57:51.121Z,44.46
2023-08-08T11:58:53.640Z,44.53
2023-08-08T11:59:56.014Z,44.35
2023-08-08T12:00:58.586Z,44.35
2023-08-08T12:02:01.976Z,44.83
2023-08-08T12:03:05.877Z,44.77
2023-08-08T12:04:10.211Z,45.01
2023-08-08T12:05:18.254Z,44.74
2023-08-08T12:06:21.445Z,44.90
2023-08-08T12:07:24.553Z,44.76
2023-08-08T12:08:31.274Z,44.44
2023-08-08T12:09:34.395Z,44.50
2023-08-08T12:10:36.677Z,44.38
2023-08-08T12:11:40.726Z,44.04
2023-08-08T12:13:50.696Z,43.25
2023-08-08T12:17:07.698Z,43.39
2023-08-08T12:18:10.030Z,43.49
2023-08-08T12:19:13.948Z,43.44
2023-08-08T12:20:16.727Z,43.35
2023-08-08T12:21:18.956Z,43.41
2023-08-08T12:22:21.507Z,43.28
2023-08-08T12:23:23.725Z,43.12
2023-08-08T12:24:26.356Z,42.97
2023-08-08T12:25:29.036Z,43.28
2023-08-08T12:26:31.345Z,43.54
2023-08-08T12:27:33.740Z,43.77
2023-08-08T12:28:36.240Z,43.21
2023-08-08T12:29:38.736Z,42.99
2023-08-08T12:30:41.017Z,43.48
2023-08-08T12:31:43.585Z,43.75
2023-08-08T12:32:45.964Z,43.95
2023-08-08T12:33:49.873Z,44.09
2023-08-08T12:34:52.655Z,44.32
2023-08-08T12:35:54.949Z,44.27
2023-08-08T12:36:57.343Z,44.27
2023-08-08T12:37:59.606Z,44.77
2023-08-08T12:39:01.964Z,44.72
2023-08-08T12:40:06.134Z,44.68
2023-08-08T12:41:12.109Z,44.67
2023-08-08T12:42:14.451Z,44.42
2023-08-08T12:43:19.930Z,44.75
2023-08-08T12:44:22.179Z,45.46
2023-08-08T12:45:25.077Z,44.98
2023-08-08T12:46:27.329Z,44.88
2023-08-08T12:47:30.603Z,44.83
2023-08-08T12:48:33.154Z,44.77
2023-08-08T12:49:35.462Z,44.17
2023-08-08T12:50:38.773Z,43.97
2023-08-08T12:51:40.996Z,44.13
2023-08-08T12:52:43.247Z,44.08
2023-08-08T12:53:45.883Z,43.70
2023-08-08T12:54:48.363Z,43.61
2023-08-08T12:55:50.601Z,43.71
2023-08-08T12:56:53.192Z,43.73
2023-08-08T12:57:55.694Z,43.47
2023-08-08T12:58:58.137Z,43.16
2023-08-08T13:00:00.734Z,43.19
2023-08-08T13:01:03.060Z,43.10
2023-08-08T13:02:05.713Z,43.35
2023-08-08T13:03:08.864Z,43.34
2023-08-08T13:04:19.554Z,43.54
2023-08-08T13:05:22.589Z,43.41
2023-08-08T13:06:24.866Z,43.71
2023-08-08T13:07:27.059Z,43.67
2023-08-08T13:08:29.634Z,44.20
2023-08-08T13:09:31.986Z,44.61
2023-08-08T13:10:34.698Z,43.51
2023-08-08T13:11:36.948Z,43.67
2023-08-08T13:12:39.196Z,43.57
2023-08-08T13:13:42.206Z,43.50
2023-08-08T13:14:44.884Z,42.45
2023-08-08T13:15:48.507Z,41.87
2023-08-08T13:16:51.189Z,41.93
2023-08-08T13:17:53.470Z,41.22
2023-08-08T13:18:55.727Z,40.82
2023-08-08T13:19:58.675Z,40.09
2023-08-08T13:21:01.251Z,39.81
2023-08-08T13:22:04.142Z,39.87
2023-08-08T13:23:06.837Z,39.83
2023-08-08T13:24:11.121Z,39.48
2023-08-08T13:25:13.601Z,39.61
2023-08-08T13:26:16.584Z,39.64
2023-08-08T13:27:18.854Z,41.00
2023-08-08T13:28:21.331Z,41.20
2023-08-08T13:29:23.639Z,40.44
2023-08-08T13:30:26.357Z,40.99
2023-08-08T13:31:28.879Z,41.30
2023-08-08T13:32:31.394Z,41.47
2023-08-08T13:33:35.348Z,41.61
2023-08-08T13:34:37.761Z,41.75
2023-08-08T13:35:40.473Z,42.20
2023-08-08T13:36:43.103Z,41.67
2023-08-08T13:37:46.936Z,41.83
2023-08-08T13:38:49.157Z,42.10
2023-08-08T13:39:51.475Z,42.50
2023-08-08T13:40:54.675Z,43.30